sensor_id;sensor_type;location;lat;lon;timestamp;P1;durP1;ratioP1;P2;durP2;ratioP2
36799;SDS011;22752;51.960;5.886;2024-01-25T00:01:25;34.53;;;6.27;;
36799;SDS011;22752;51.960;5.886;2024-01-25T00:03:51;37.77;;;5.70;;
36799;SDS011;22752;51.960;5.886;2024-01-25T00:06:17;32.90;;;5.53;;
36799;SDS011;22752;51.960;5.886;2024-01-25T00:08:43;25.53;;;5.23;;
36799;SDS011;22752;51.960;5.886;2024-01-25T00:11:09;26.30;;;5.70;;
36799;SDS011;22752;51.960;5.886;2024-01-25T00:13:34;30.33;;;5.47;;
36799;SDS011;22752;51.960;5.886;2024-01-25T00:16:02;30.80;;;6.50;;
36799;SDS011;22752;51.960;5.886;2024-01-25T00:18:28;31.33;;;5.87;;
36799;SDS011;22752;51.960;5.886;2024-01-25T00:20:54;28.07;;;6.03;;
36799;SDS011;22752;51.960;5.886;2024-01-25T00:23:20;31.10;;;5.53;;
36799;SDS011;22752;51.960;5.886;2024-01-25T00:25:46;27.17;;;5.37;;
36799;SDS011;22752;51.960;5.886;2024-01-25T00:28:12;27.00;;;5.47;;
36799;SDS011;22752;51.960;5.886;2024-01-25T00:30:38;26.23;;;4.57;;
36799;SDS011;22752;51.960;5.886;2024-01-25T00:33:04;28.83;;;5.40;;
36799;SDS011;22752;51.960;5.886;2024-01-25T00:35:30;39.13;;;5.37;;
36799;SDS011;22752;51.960;5.886;2024-01-25T00:37:56;24.10;;;5.17;;
36799;SDS011;22752;51.960;5.886;2024-01-25T00:40:22;33.37;;;5.67;;
36799;SDS011;22752;51.960;5.886;2024-01-25T00:42:48;32.07;;;5.17;;
36799;SDS011;22752;51.960;5.886;2024-01-25T00:45:18;29.93;;;6.20;;
36799;SDS011;22752;51.960;5.886;2024-01-25T00:47:44;25.67;;;5.50;;
36799;SDS011;22752;51.960;5.886;2024-01-25T00:50:11;23.90;;;4.60;;
36799;SDS011;22752;51.960;5.886;2024-01-25T00:52:37;31.73;;;4.93;;
36799;SDS011;22752;51.960;5.886;2024-01-25T00:55:03;27.57;;;5.33;;
36799;SDS011;22752;51.960;5.886;2024-01-25T00:57:29;34.00;;;5.67;;
36799;SDS011;22752;51.960;5.886;2024-01-25T00:59:55;26.40;;;4.60;;
36799;SDS011;22752;51.960;5.886;2024-01-25T01:02:21;29.23;;;6.00;;
36799;SDS011;22752;51.960;5.886;2024-01-25T01:04:47;31.13;;;4.97;;
36799;SDS011;22752;51.960;5.886;2024-01-25T01:07:14;27.37;;;4.40;;
36799;SDS011;22752;51.960;5.886;2024-01-25T01:09:40;24.77;;;4.40;;
36799;SDS011;22752;51.960;5.886;2024-01-25T01:12:06;27.50;;;4.83;;
36799;SDS011;22752;51.960;5.886;2024-01-25T01:14:32;26.73;;;4.70;;
36799;SDS011;22752;51.960;5.886;2024-01-25T01:16:57;22.43;;;4.40;;
36799;SDS011;22752;51.960;5.886;2024-01-25T01:19:23;22.27;;;4.97;;
36799;SDS011;22752;51.960;5.886;2024-01-25T01:21:49;25.53;;;4.63;;
36799;SDS011;22752;51.960;5.886;2024-01-25T01:24:14;22.13;;;4.23;;
36799;SDS011;22752;51.960;5.886;2024-01-25T01:26:40;26.90;;;4.60;;
36799;SDS011;22752;51.960;5.886;2024-01-25T01:29:08;30.30;;;4.80;;
36799;SDS011;22752;51.960;5.886;2024-01-25T01:31:34;24.37;;;4.20;;
36799;SDS011;22752;51.960;5.886;2024-01-25T01:33:59;23.67;;;4.70;;
36799;SDS011;22752;51.960;5.886;2024-01-25T01:36:25;26.93;;;4.77;;
36799;SDS011;22752;51.960;5.886;2024-01-25T01:38:51;19.83;;;3.70;;
36799;SDS011;22752;51.960;5.886;2024-01-25T01:41:19;20.80;;;4.03;;
36799;SDS011;22752;51.960;5.886;2024-01-25T01:43:45;25.47;;;3.97;;
36799;SDS011;22752;51.960;5.886;2024-01-25T01:46:11;26.07;;;4.13;;
36799;SDS011;22752;51.960;5.886;2024-01-25T01:48:46;23.53;;;3.80;;
36799;SDS011;22752;51.960;5.886;2024-01-25T01:51:12;24.60;;;4.50;;
36799;SDS011;22752;51.960;5.886;2024-01-25T01:53:37;29.47;;;4.80;;
36799;SDS011;22752;51.960;5.886;2024-01-25T01:56:03;20.23;;;3.80;;
36799;SDS011;22752;51.960;5.886;2024-01-25T01:58:30;31.80;;;5.10;;
36799;SDS011;22752;51.960;5.886;2024-01-25T02:00:57;35.17;;;5.90;;
36799;SDS011;22752;51.960;5.886;2024-01-25T02:03:25;23.33;;;5.10;;
36799;SDS011;22752;51.960;5.886;2024-01-25T02:05:50;26.37;;;4.33;;
36799;SDS011;22752;51.960;5.886;2024-01-25T02:08:16;25.83;;;4.93;;
36799;SDS011;22752;51.960;5.886;2024-01-25T02:10:42;28.37;;;5.57;;
36799;SDS011;22752;51.960;5.886;2024-01-25T02:13:08;29.03;;;4.57;;
36799;SDS011;22752;51.960;5.886;2024-01-25T02:15:33;22.60;;;4.13;;
36799;SDS011;22752;51.960;5.886;2024-01-25T02:17:59;25.67;;;5.00;;
36799;SDS011;22752;51.960;5.886;2024-01-25T02:20:25;22.67;;;3.97;;
36799;SDS011;22752;51.960;5.886;2024-01-25T02:22:51;27.03;;;4.67;;
36799;SDS011;22752;51.960;5.886;2024-01-25T02:25:16;24.57;;;4.67;;
36799;SDS011;22752;51.960;5.886;2024-01-25T02:27:42;21.30;;;4.33;;
36799;SDS011;22752;51.960;5.886;2024-01-25T02:30:07;22.77;;;4.53;;
36799;SDS011;22752;51.960;5.886;2024-01-25T02:32:33;25.83;;;4.87;;
36799;SDS011;22752;51.960;5.886;2024-01-25T02:34:59;22.50;;;4.17;;
36799;SDS011;22752;51.960;5.886;2024-01-25T02:37:25;19.63;;;3.70;;
36799;SDS011;22752;51.960;5.886;2024-01-25T02:39:51;24.97;;;5.17;;
36799;SDS011;22752;51.960;5.886;2024-01-25T02:42:18;28.10;;;3.87;;
36799;SDS011;22752;51.960;5.886;2024-01-25T02:44:43;21.90;;;4.37;;
36799;SDS011;22752;51.960;5.886;2024-01-25T02:47:09;19.37;;;4.07;;
36799;SDS011;22752;51.960;5.886;2024-01-25T02:49:35;21.70;;;5.40;;
36799;SDS011;22752;51.960;5.886;2024-01-25T02:52:00;17.80;;;4.20;;
36799;SDS011;22752;51.960;5.886;2024-01-25T02:54:26;23.63;;;4.03;;
36799;SDS011;22752;51.960;5.886;2024-01-25T02:56:52;25.50;;;3.83;;
36799;SDS011;22752;51.960;5.886;2024-01-25T02:59:18;22.87;;;4.33;;
36799;SDS011;22752;51.960;5.886;2024-01-25T03:01:44;28.40;;;5.00;;
36799;SDS011;22752;51.960;5.886;2024-01-25T03:04:10;20.50;;;4.03;;
36799;SDS011;22752;51.960;5.886;2024-01-25T03:06:36;22.13;;;3.83;;
36799;SDS011;22752;51.960;5.886;2024-01-25T03:09:02;21.47;;;3.43;;
36799;SDS011;22752;51.960;5.886;2024-01-25T03:11:29;22.90;;;5.50;;
36799;SDS011;22752;51.960;5.886;2024-01-25T03:13:55;23.93;;;4.57;;
36799;SDS011;22752;51.960;5.886;2024-01-25T03:16:21;19.63;;;3.73;;
36799;SDS011;22752;51.960;5.886;2024-01-25T03:18:47;22.07;;;3.80;;
36799;SDS011;22752;51.960;5.886;2024-01-25T03:21:13;20.27;;;4.33;;
36799;SDS011;22752;51.960;5.886;2024-01-25T03:23:38;32.17;;;5.00;;
36799;SDS011;22752;51.960;5.886;2024-01-25T03:26:04;24.23;;;4.53;;
36799;SDS011;22752;51.960;5.886;2024-01-25T03:28:30;29.60;;;5.07;;
36799;SDS011;22752;51.960;5.886;2024-01-25T03:30:56;24.43;;;5.40;;
36799;SDS011;22752;51.960;5.886;2024-01-25T03:33:21;26.93;;;4.40;;
36799;SDS011;22752;51.960;5.886;2024-01-25T03:35:47;27.23;;;5.17;;
36799;SDS011;22752;51.960;5.886;2024-01-25T03:38:13;25.70;;;5.97;;
36799;SDS011;22752;51.960;5.886;2024-01-25T03:40:39;26.30;;;4.67;;
36799;SDS011;22752;51.960;5.886;2024-01-25T03:43:04;24.90;;;4.27;;
36799;SDS011;22752;51.960;5.886;2024-01-25T03:45:30;21.80;;;4.83;;
36799;SDS011;22752;51.960;5.886;2024-01-25T03:47:57;24.40;;;4.40;;
36799;SDS011;22752;51.960;5.886;2024-01-25T03:50:23;24.20;;;4.07;;
36799;SDS011;22752;51.960;5.886;2024-01-25T03:52:49;24.13;;;4.93;;
36799;SDS011;22752;51.960;5.886;2024-01-25T03:55:15;27.70;;;4.50;;
36799;SDS011;22752;51.960;5.886;2024-01-25T03:57:40;23.23;;;4.53;;
36799;SDS011;22752;51.960;5.886;2024-01-25T04:00:07;27.67;;;4.83;;
36799;SDS011;22752;51.960;5.886;2024-01-25T04:02:33;29.33;;;4.50;;
36799;SDS011;22752;51.960;5.886;2024-01-25T04:04:59;21.60;;;4.40;;
36799;SDS011;22752;51.960;5.886;2024-01-25T04:07:25;20.67;;;4.03;;
36799;SDS011;22752;51.960;5.886;2024-01-25T04:09:50;26.13;;;4.63;;
36799;SDS011;22752;51.960;5.886;2024-01-25T04:12:16;23.07;;;3.70;;
36799;SDS011;22752;51.960;5.886;2024-01-25T04:14:42;28.73;;;4.30;;
36799;SDS011;22752;51.960;5.886;2024-01-25T04:17:07;26.17;;;3.93;;
36799;SDS011;22752;51.960;5.886;2024-01-25T04:19:33;24.37;;;4.33;;
36799;SDS011;22752;51.960;5.886;2024-01-25T04:22:00;27.40;;;4.17;;
36799;SDS011;22752;51.960;5.886;2024-01-25T04:24:26;23.60;;;5.03;;
36799;SDS011;22752;51.960;5.886;2024-01-25T04:26:51;19.37;;;4.00;;
36799;SDS011;22752;51.960;5.886;2024-01-25T04:29:17;22.30;;;3.90;;
36799;SDS011;22752;51.960;5.886;2024-01-25T04:31:43;22.07;;;3.43;;
36799;SDS011;22752;51.960;5.886;2024-01-25T04:34:10;18.37;;;3.63;;
36799;SDS011;22752;51.960;5.886;2024-01-25T04:36:36;20.80;;;4.10;;
36799;SDS011;22752;51.960;5.886;2024-01-25T04:39:01;18.87;;;4.07;;
36799;SDS011;22752;51.960;5.886;2024-01-25T04:41:27;18.10;;;3.67;;
36799;SDS011;22752;51.960;5.886;2024-01-25T04:43:53;21.80;;;3.17;;
36799;SDS011;22752;51.960;5.886;2024-01-25T04:46:18;18.30;;;3.43;;
36799;SDS011;22752;51.960;5.886;2024-01-25T04:48:44;24.40;;;3.63;;
36799;SDS011;22752;51.960;5.886;2024-01-25T04:51:15;21.27;;;4.07;;
36799;SDS011;22752;51.960;5.886;2024-01-25T04:53:44;26.13;;;4.00;;
36799;SDS011;22752;51.960;5.886;2024-01-25T04:56:10;18.97;;;3.67;;
36799;SDS011;22752;51.960;5.886;2024-01-25T04:58:36;21.83;;;4.47;;
36799;SDS011;22752;51.960;5.886;2024-01-25T05:01:02;18.10;;;3.93;;
36799;SDS011;22752;51.960;5.886;2024-01-25T05:03:27;21.13;;;4.53;;
36799;SDS011;22752;51.960;5.886;2024-01-25T05:05:53;20.70;;;4.33;;
36799;SDS011;22752;51.960;5.886;2024-01-25T05:08:18;22.50;;;4.17;;
36799;SDS011;22752;51.960;5.886;2024-01-25T05:10:44;18.70;;;3.83;;
36799;SDS011;22752;51.960;5.886;2024-01-25T05:13:10;21.07;;;3.93;;
36799;SDS011;22752;51.960;5.886;2024-01-25T05:15:36;19.00;;;3.83;;
36799;SDS011;22752;51.960;5.886;2024-01-25T05:18:02;17.03;;;3.90;;
36799;SDS011;22752;51.960;5.886;2024-01-25T05:20:28;20.93;;;3.67;;
36799;SDS011;22752;51.960;5.886;2024-01-25T05:22:57;28.20;;;4.13;;
36799;SDS011;22752;51.960;5.886;2024-01-25T05:25:24;22.83;;;4.10;;
36799;SDS011;22752;51.960;5.886;2024-01-25T05:27:51;23.33;;;3.80;;
36799;SDS011;22752;51.960;5.886;2024-01-25T05:30:17;18.83;;;4.27;;
36799;SDS011;22752;51.960;5.886;2024-01-25T05:32:43;18.53;;;3.97;;
36799;SDS011;22752;51.960;5.886;2024-01-25T05:35:09;14.87;;;3.37;;
36799;SDS011;22752;51.960;5.886;2024-01-25T05:37:35;17.50;;;3.53;;
36799;SDS011;22752;51.960;5.886;2024-01-25T05:40:00;19.60;;;3.80;;
36799;SDS011;22752;51.960;5.886;2024-01-25T05:42:26;14.60;;;3.50;;
36799;SDS011;22752;51.960;5.886;2024-01-25T05:44:52;15.30;;;3.07;;
36799;SDS011;22752;51.960;5.886;2024-01-25T05:47:17;15.03;;;3.97;;
36799;SDS011;22752;51.960;5.886;2024-01-25T05:49:43;17.53;;;3.43;;
36799;SDS011;22752;51.960;5.886;2024-01-25T05:52:08;23.13;;;3.90;;
36799;SDS011;22752;51.960;5.886;2024-01-25T05:54:34;16.20;;;3.90;;
36799;SDS011;22752;51.960;5.886;2024-01-25T05:57:00;18.63;;;4.40;;
36799;SDS011;22752;51.960;5.886;2024-01-25T05:59:25;19.57;;;3.73;;
36799;SDS011;22752;51.960;5.886;2024-01-25T06:01:51;14.47;;;3.47;;
36799;SDS011;22752;51.960;5.886;2024-01-25T06:04:16;12.17;;;2.87;;
36799;SDS011;22752;51.960;5.886;2024-01-25T06:06:42;19.60;;;3.83;;
36799;SDS011;22752;51.960;5.886;2024-01-25T06:09:08;14.70;;;4.13;;
36799;SDS011;22752;51.960;5.886;2024-01-25T06:11:33;14.40;;;3.60;;
36799;SDS011;22752;51.960;5.886;2024-01-25T06:14:01;12.30;;;3.47;;
36799;SDS011;22752;51.960;5.886;2024-01-25T06:16:26;25.87;;;4.00;;
36799;SDS011;22752;51.960;5.886;2024-01-25T06:18:52;13.30;;;3.30;;
36799;SDS011;22752;51.960;5.886;2024-01-25T06:21:17;16.00;;;4.10;;
36799;SDS011;22752;51.960;5.886;2024-01-25T06:23:43;19.63;;;3.40;;
36799;SDS011;22752;51.960;5.886;2024-01-25T06:26:09;18.53;;;3.63;;
36799;SDS011;22752;51.960;5.886;2024-01-25T06:28:34;20.17;;;4.53;;
36799;SDS011;22752;51.960;5.886;2024-01-25T06:31:03;29.87;;;3.90;;
36799;SDS011;22752;51.960;5.886;2024-01-25T06:33:29;14.10;;;3.50;;
36799;SDS011;22752;51.960;5.886;2024-01-25T06:35:55;16.37;;;4.23;;
36799;SDS011;22752;51.960;5.886;2024-01-25T06:38:22;14.67;;;3.70;;
36799;SDS011;22752;51.960;5.886;2024-01-25T06:40:48;22.37;;;3.93;;
36799;SDS011;22752;51.960;5.886;2024-01-25T06:43:13;11.90;;;2.93;;
36799;SDS011;22752;51.960;5.886;2024-01-25T06:45:39;18.57;;;4.23;;
36799;SDS011;22752;51.960;5.886;2024-01-25T06:48:05;11.63;;;3.10;;
36799;SDS011;22752;51.960;5.886;2024-01-25T06:50:33;14.23;;;3.80;;
36799;SDS011;22752;51.960;5.886;2024-01-25T06:52:59;18.40;;;3.37;;
36799;SDS011;22752;51.960;5.886;2024-01-25T06:55:25;15.63;;;3.83;;
36799;SDS011;22752;51.960;5.886;2024-01-25T06:57:51;20.37;;;4.33;;
36799;SDS011;22752;51.960;5.886;2024-01-25T07:00:16;14.30;;;3.83;;
36799;SDS011;22752;51.960;5.886;2024-01-25T07:02:43;16.47;;;3.50;;
36799;SDS011;22752;51.960;5.886;2024-01-25T07:05:09;14.67;;;3.37;;
36799;SDS011;22752;51.960;5.886;2024-01-25T07:07:35;18.80;;;3.50;;
36799;SDS011;22752;51.960;5.886;2024-01-25T07:10:03;20.07;;;3.67;;
36799;SDS011;22752;51.960;5.886;2024-01-25T07:12:30;15.87;;;3.70;;
36799;SDS011;22752;51.960;5.886;2024-01-25T07:14:56;20.03;;;3.63;;
36799;SDS011;22752;51.960;5.886;2024-01-25T07:17:21;19.37;;;4.83;;
36799;SDS011;22752;51.960;5.886;2024-01-25T07:19:47;22.53;;;5.50;;
36799;SDS011;22752;51.960;5.886;2024-01-25T07:22:12;25.50;;;5.93;;
36799;SDS011;22752;51.960;5.886;2024-01-25T07:24:40;24.97;;;5.93;;
36799;SDS011;22752;51.960;5.886;2024-01-25T07:27:06;18.00;;;4.53;;
36799;SDS011;22752;51.960;5.886;2024-01-25T07:29:31;23.87;;;5.20;;
36799;SDS011;22752;51.960;5.886;2024-01-25T07:31:57;20.40;;;4.30;;
36799;SDS011;22752;51.960;5.886;2024-01-25T07:34:22;14.70;;;4.03;;
36799;SDS011;22752;51.960;5.886;2024-01-25T07:36:48;15.73;;;4.33;;
36799;SDS011;22752;51.960;5.886;2024-01-25T07:39:14;20.67;;;5.03;;
36799;SDS011;22752;51.960;5.886;2024-01-25T07:41:39;17.33;;;4.53;;
36799;SDS011;22752;51.960;5.886;2024-01-25T07:44:05;30.10;;;5.97;;
36799;SDS011;22752;51.960;5.886;2024-01-25T07:46:31;26.70;;;6.30;;
36799;SDS011;22752;51.960;5.886;2024-01-25T07:48:57;31.47;;;5.20;;
36799;SDS011;22752;51.960;5.886;2024-01-25T07:51:22;27.70;;;5.50;;
36799;SDS011;22752;51.960;5.886;2024-01-25T07:53:48;25.53;;;6.47;;
36799;SDS011;22752;51.960;5.886;2024-01-25T07:56:13;22.03;;;5.13;;
36799;SDS011;22752;51.960;5.886;2024-01-25T07:58:39;19.47;;;5.13;;
36799;SDS011;22752;51.960;5.886;2024-01-25T08:01:05;24.73;;;5.80;;
36799;SDS011;22752;51.960;5.886;2024-01-25T08:03:31;24.70;;;5.77;;
36799;SDS011;22752;51.960;5.886;2024-01-25T08:05:58;19.03;;;4.43;;
36799;SDS011;22752;51.960;5.886;2024-01-25T08:08:24;15.27;;;4.83;;
36799;SDS011;22752;51.960;5.886;2024-01-25T08:10:50;19.27;;;4.83;;
36799;SDS011;22752;51.960;5.886;2024-01-25T08:13:15;19.57;;;4.83;;
36799;SDS011;22752;51.960;5.886;2024-01-25T08:15:41;19.37;;;4.97;;
36799;SDS011;22752;51.960;5.886;2024-01-25T08:18:07;20.20;;;4.90;;
36799;SDS011;22752;51.960;5.886;2024-01-25T08:20:33;15.53;;;4.67;;
36799;SDS011;22752;51.960;5.886;2024-01-25T08:23:00;19.50;;;4.93;;
36799;SDS011;22752;51.960;5.886;2024-01-25T08:25:26;23.30;;;6.13;;
36799;SDS011;22752;51.960;5.886;2024-01-25T08:27:51;26.20;;;5.93;;
36799;SDS011;22752;51.960;5.886;2024-01-25T08:30:17;24.70;;;6.13;;
36799;SDS011;22752;51.960;5.886;2024-01-25T08:32:43;33.43;;;6.63;;
36799;SDS011;22752;51.960;5.886;2024-01-25T08:35:08;39.47;;;6.90;;
36799;SDS011;22752;51.960;5.886;2024-01-25T08:37:34;35.30;;;6.37;;
36799;SDS011;22752;51.960;5.886;2024-01-25T08:40:02;29.57;;;6.77;;
36799;SDS011;22752;51.960;5.886;2024-01-25T08:42:31;27.03;;;6.53;;
36799;SDS011;22752;51.960;5.886;2024-01-25T08:44:57;28.10;;;5.57;;
36799;SDS011;22752;51.960;5.886;2024-01-25T08:47:22;25.77;;;5.57;;
36799;SDS011;22752;51.960;5.886;2024-01-25T08:49:48;23.30;;;5.93;;
36799;SDS011;22752;51.960;5.886;2024-01-25T08:52:14;23.93;;;5.17;;
36799;SDS011;22752;51.960;5.886;2024-01-25T08:54:40;27.43;;;6.10;;
36799;SDS011;22752;51.960;5.886;2024-01-25T08:57:07;28.97;;;7.20;;
36799;SDS011;22752;51.960;5.886;2024-01-25T08:59:33;30.30;;;6.70;;
36799;SDS011;22752;51.960;5.886;2024-01-25T09:02:02;39.77;;;7.47;;
36799;SDS011;22752;51.960;5.886;2024-01-25T09:04:31;29.27;;;7.10;;
36799;SDS011;22752;51.960;5.886;2024-01-25T09:06:57;40.80;;;6.80;;
36799;SDS011;22752;51.960;5.886;2024-01-25T09:09:23;33.87;;;6.60;;
36799;SDS011;22752;51.960;5.886;2024-01-25T09:11:49;28.03;;;5.97;;
36799;SDS011;22752;51.960;5.886;2024-01-25T09:14:15;27.47;;;6.53;;
36799;SDS011;22752;51.960;5.886;2024-01-25T09:16:41;40.30;;;7.70;;
36799;SDS011;22752;51.960;5.886;2024-01-25T09:19:07;33.40;;;6.70;;
36799;SDS011;22752;51.960;5.886;2024-01-25T09:21:33;28.37;;;5.80;;
36799;SDS011;22752;51.960;5.886;2024-01-25T09:23:58;22.40;;;6.20;;
36799;SDS011;22752;51.960;5.886;2024-01-25T09:26:24;22.30;;;5.97;;
36799;SDS011;22752;51.960;5.886;2024-01-25T09:28:50;33.20;;;6.50;;
36799;SDS011;22752;51.960;5.886;2024-01-25T09:31:16;34.20;;;6.63;;
36799;SDS011;22752;51.960;5.886;2024-01-25T09:33:41;34.60;;;7.80;;
36799;SDS011;22752;51.960;5.886;2024-01-25T09:36:07;29.23;;;6.60;;
36799;SDS011;22752;51.960;5.886;2024-01-25T09:38:33;34.33;;;7.47;;
36799;SDS011;22752;51.960;5.886;2024-01-25T09:40:59;42.73;;;7.57;;
36799;SDS011;22752;51.960;5.886;2024-01-25T09:43:26;36.30;;;7.07;;
36799;SDS011;22752;51.960;5.886;2024-01-25T09:45:55;34.80;;;7.47;;
36799;SDS011;22752;51.960;5.886;2024-01-25T09:48:20;42.73;;;8.27;;
36799;SDS011;22752;51.960;5.886;2024-01-25T09:50:47;38.90;;;9.17;;
36799;SDS011;22752;51.960;5.886;2024-01-25T09:53:22;45.53;;;8.63;;
36799;SDS011;22752;51.960;5.886;2024-01-25T09:55:58;31.47;;;6.67;;
36799;SDS011;22752;51.960;5.886;2024-01-25T09:58:33;41.03;;;7.97;;
36799;SDS011;22752;51.960;5.886;2024-01-25T10:01:12;26.87;;;6.87;;
36799;SDS011;22752;51.960;5.886;2024-01-25T10:03:43;33.53;;;7.63;;
36799;SDS011;22752;51.960;5.886;2024-01-25T10:06:13;37.87;;;7.40;;
36799;SDS011;22752;51.960;5.886;2024-01-25T10:08:40;40.90;;;8.33;;
36799;SDS011;22752;51.960;5.886;2024-01-25T10:11:06;40.83;;;8.43;;
36799;SDS011;22752;51.960;5.886;2024-01-25T10:13:39;34.80;;;7.50;;
36799;SDS011;22752;51.960;5.886;2024-01-25T10:16:13;33.87;;;7.53;;
36799;SDS011;22752;51.960;5.886;2024-01-25T10:18:42;36.33;;;7.73;;
36799;SDS011;22752;51.960;5.886;2024-01-25T10:21:12;42.07;;;8.80;;
36799;SDS011;22752;51.960;5.886;2024-01-25T10:23:39;35.27;;;8.03;;
36799;SDS011;22752;51.960;5.886;2024-01-25T10:26:05;32.63;;;7.90;;
36799;SDS011;22752;51.960;5.886;2024-01-25T10:28:33;39.53;;;7.73;;
36799;SDS011;22752;51.960;5.886;2024-01-25T10:31:01;32.13;;;6.47;;
36799;SDS011;22752;51.960;5.886;2024-01-25T10:33:29;42.70;;;8.10;;
36799;SDS011;22752;51.960;5.886;2024-01-25T10:35:56;37.47;;;9.40;;
36799;SDS011;22752;51.960;5.886;2024-01-25T10:38:31;31.65;;;6.90;;
36799;SDS011;22752;51.960;5.886;2024-01-25T10:41:00;36.63;;;8.70;;
36799;SDS011;22752;51.960;5.886;2024-01-25T10:43:27;35.50;;;7.27;;
36799;SDS011;22752;51.960;5.886;2024-01-25T10:45:53;40.83;;;8.50;;
36799;SDS011;22752;51.960;5.886;2024-01-25T10:48:22;42.73;;;8.57;;
36799;SDS011;22752;51.960;5.886;2024-01-25T10:50:48;33.73;;;7.97;;
36799;SDS011;22752;51.960;5.886;2024-01-25T10:53:14;36.47;;;7.53;;
36799;SDS011;22752;51.960;5.886;2024-01-25T10:55:42;34.70;;;7.57;;
36799;SDS011;22752;51.960;5.886;2024-01-25T10:58:07;33.57;;;7.20;;
36799;SDS011;22752;51.960;5.886;2024-01-25T11:00:33;35.97;;;7.80;;
36799;SDS011;22752;51.960;5.886;2024-01-25T11:03:00;39.07;;;8.53;;
36799;SDS011;22752;51.960;5.886;2024-01-25T11:05:26;40.40;;;8.43;;
36799;SDS011;22752;51.960;5.886;2024-01-25T11:07:53;36.47;;;8.83;;
36799;SDS011;22752;51.960;5.886;2024-01-25T11:10:20;39.13;;;9.13;;
36799;SDS011;22752;51.960;5.886;2024-01-25T11:12:48;29.07;;;8.07;;
36799;SDS011;22752;51.960;5.886;2024-01-25T11:15:21;37.73;;;8.03;;
36799;SDS011;22752;51.960;5.886;2024-01-25T11:17:52;38.33;;;9.07;;
36799;SDS011;22752;51.960;5.886;2024-01-25T11:20:23;40.17;;;9.20;;
36799;SDS011;22752;51.960;5.886;2024-01-25T11:23:04;47.07;;;10.03;;
36799;SDS011;22752;51.960;5.886;2024-01-25T11:25:32;38.20;;;8.87;;
36799;SDS011;22752;51.960;5.886;2024-01-25T11:28:00;38.63;;;8.37;;
36799;SDS011;22752;51.960;5.886;2024-01-25T11:30:28;39.60;;;8.97;;
36799;SDS011;22752;51.960;5.886;2024-01-25T11:32:54;35.17;;;8.10;;
36799;SDS011;22752;51.960;5.886;2024-01-25T11:35:21;38.23;;;9.20;;
36799;SDS011;22752;51.960;5.886;2024-01-25T11:37:47;37.73;;;9.10;;
36799;SDS011;22752;51.960;5.886;2024-01-25T11:40:14;42.20;;;9.90;;
36799;SDS011;22752;51.960;5.886;2024-01-25T11:42:44;43.47;;;10.50;;
36799;SDS011;22752;51.960;5.886;2024-01-25T11:45:12;53.90;;;10.63;;
36799;SDS011;22752;51.960;5.886;2024-01-25T11:47:39;45.07;;;11.20;;
36799;SDS011;22752;51.960;5.886;2024-01-25T11:50:06;42.97;;;9.73;;
36799;SDS011;22752;51.960;5.886;2024-01-25T11:52:33;36.13;;;9.50;;
36799;SDS011;22752;51.960;5.886;2024-01-25T11:55:06;51.80;;;10.97;;
36799;SDS011;22752;51.960;5.886;2024-01-25T11:57:37;48.20;;;10.07;;
36799;SDS011;22752;51.960;5.886;2024-01-25T12:00:04;43.97;;;9.50;;
36799;SDS011;22752;51.960;5.886;2024-01-25T12:02:31;42.93;;;10.13;;
36799;SDS011;22752;51.960;5.886;2024-01-25T12:04:57;47.23;;;9.43;;
36799;SDS011;22752;51.960;5.886;2024-01-25T12:07:23;35.43;;;8.53;;
36799;SDS011;22752;51.960;5.886;2024-01-25T12:10:07;44.90;;;9.83;;
36799;SDS011;22752;51.960;5.886;2024-01-25T12:12:35;27.20;;;7.73;;
36799;SDS011;22752;51.960;5.886;2024-01-25T12:15:04;37.50;;;8.73;;
36799;SDS011;22752;51.960;5.886;2024-01-25T12:17:30;32.80;;;8.27;;
36799;SDS011;22752;51.960;5.886;2024-01-25T12:19:57;34.47;;;8.23;;
36799;SDS011;22752;51.960;5.886;2024-01-25T12:22:23;34.80;;;7.97;;
36799;SDS011;22752;51.960;5.886;2024-01-25T12:24:55;36.20;;;8.20;;
36799;SDS011;22752;51.960;5.886;2024-01-25T12:27:21;30.00;;;8.87;;
36799;SDS011;22752;51.960;5.886;2024-01-25T12:29:48;34.40;;;8.70;;
36799;SDS011;22752;51.960;5.886;2024-01-25T12:32:16;32.33;;;8.33;;
36799;SDS011;22752;51.960;5.886;2024-01-25T12:34:42;33.20;;;8.30;;
36799;SDS011;22752;51.960;5.886;2024-01-25T12:37:17;21.60;;;7.00;;
36799;SDS011;22752;51.960;5.886;2024-01-25T12:39:43;37.00;;;8.33;;
36799;SDS011;22752;51.960;5.886;2024-01-25T12:42:08;28.43;;;8.43;;
36799;SDS011;22752;51.960;5.886;2024-01-25T12:44:34;33.07;;;9.30;;
36799;SDS011;22752;51.960;5.886;2024-01-25T12:47:00;36.23;;;9.20;;
36799;SDS011;22752;51.960;5.886;2024-01-25T12:49:27;38.03;;;9.40;;
36799;SDS011;22752;51.960;5.886;2024-01-25T12:51:54;26.33;;;8.47;;
36799;SDS011;22752;51.960;5.886;2024-01-25T12:54:20;33.67;;;9.77;;
36799;SDS011;22752;51.960;5.886;2024-01-25T12:56:45;35.07;;;9.33;;
36799;SDS011;22752;51.960;5.886;2024-01-25T12:59:11;34.10;;;9.37;;
36799;SDS011;22752;51.960;5.886;2024-01-25T13:01:37;38.80;;;8.77;;
36799;SDS011;22752;51.960;5.886;2024-01-25T13:04:03;31.53;;;7.63;;
36799;SDS011;22752;51.960;5.886;2024-01-25T13:06:29;33.80;;;9.17;;
36799;SDS011;22752;51.960;5.886;2024-01-25T13:08:54;33.20;;;9.37;;
36799;SDS011;22752;51.960;5.886;2024-01-25T13:11:20;37.77;;;10.13;;
36799;SDS011;22752;51.960;5.886;2024-01-25T13:13:45;31.57;;;8.00;;
36799;SDS011;22752;51.960;5.886;2024-01-25T13:16:11;33.23;;;8.73;;
36799;SDS011;22752;51.960;5.886;2024-01-25T13:18:37;27.20;;;7.53;;
36799;SDS011;22752;51.960;5.886;2024-01-25T13:21:02;31.20;;;8.57;;
36799;SDS011;22752;51.960;5.886;2024-01-25T13:23:28;35.37;;;9.03;;
36799;SDS011;22752;51.960;5.886;2024-01-25T13:25:53;44.07;;;9.73;;
36799;SDS011;22752;51.960;5.886;2024-01-25T13:28:19;33.47;;;9.33;;
36799;SDS011;22752;51.960;5.886;2024-01-25T13:30:45;41.83;;;9.70;;
36799;SDS011;22752;51.960;5.886;2024-01-25T13:33:10;44.30;;;10.27;;
36799;SDS011;22752;51.960;5.886;2024-01-25T13:35:36;40.63;;;10.00;;
36799;SDS011;22752;51.960;5.886;2024-01-25T13:38:02;32.10;;;9.70;;
36799;SDS011;22752;51.960;5.886;2024-01-25T13:40:28;29.80;;;8.40;;
36799;SDS011;22752;51.960;5.886;2024-01-25T13:42:53;34.87;;;10.30;;
36799;SDS011;22752;51.960;5.886;2024-01-25T13:45:22;34.93;;;10.97;;
36799;SDS011;22752;51.960;5.886;2024-01-25T13:47:47;34.10;;;10.63;;
36799;SDS011;22752;51.960;5.886;2024-01-25T13:50:13;37.27;;;12.03;;
36799;SDS011;22752;51.960;5.886;2024-01-25T13:52:38;48.20;;;13.33;;
36799;SDS011;22752;51.960;5.886;2024-01-25T13:55:04;41.53;;;12.53;;
36799;SDS011;22752;51.960;5.886;2024-01-25T13:57:30;39.10;;;12.60;;
36799;SDS011;22752;51.960;5.886;2024-01-25T13:59:56;38.07;;;13.57;;
36799;SDS011;22752;51.960;5.886;2024-01-25T14:02:21;50.07;;;14.47;;
36799;SDS011;22752;51.960;5.886;2024-01-25T14:04:47;48.80;;;14.07;;
36799;SDS011;22752;51.960;5.886;2024-01-25T14:07:15;40.80;;;13.47;;
36799;SDS011;22752;51.960;5.886;2024-01-25T14:09:42;40.30;;;13.03;;
36799;SDS011;22752;51.960;5.886;2024-01-25T14:12:07;46.00;;;15.60;;
36799;SDS011;22752;51.960;5.886;2024-01-25T14:14:33;54.03;;;18.13;;
36799;SDS011;22752;51.960;5.886;2024-01-25T14:16:59;49.50;;;17.43;;
36799;SDS011;22752;51.960;5.886;2024-01-25T14:19:24;55.77;;;19.50;;
36799;SDS011;22752;51.960;5.886;2024-01-25T14:21:50;46.40;;;18.07;;
36799;SDS011;22752;51.960;5.886;2024-01-25T14:24:16;51.13;;;18.97;;
36799;SDS011;22752;51.960;5.886;2024-01-25T14:26:42;62.07;;;22.53;;
36799;SDS011;22752;51.960;5.886;2024-01-25T14:29:09;56.13;;;21.97;;